LIRA Airport Information

Runway Information
Runway 15 Length 7226 ft width 147 ft
Elevation 341 ft Threshold ft Heading 152
Runway 33 Length 7226 ft Width 147 ft
Elevation 427 ft Threshold ft Heading 332
Airport Frequencies
Type ARR Name ROMA ARR Frequency 119.2 MHZ
Type CLD Name CLNC DEL Frequency 119.4 MHZ
Type DIR Name ROMA DIREC Frequency 119.2 MHZ
Type GND Name GND Frequency 121.75 MHZ
Type TWR Name TWR Frequency 120.5 MHZ
Airport Navaids
Type NDB Name Ciampino Frequency 412 KHZ
Type VOR-DME Name Roma Frequency 110800 KHZ
Airport Weather Information & NOTAM
ADDS - METARS form results

(1625 UTC 05 October 2022)
Data provider http://aviationweather.gov/metar/data/
 
METAR text: LIRA 051620Z 24006KT 9999 FEW025 22/16 Q1026
Conditions at: LIRA (CIAMPINO(IT-AFB/, IT) observed 1620 UTC 05 October 2022
Temperature: 22.0°C (72°F)
Dewpoint: 16.0°C (61°F) [RH = 69%]
Pressure (altimeter): 30.30 inches Hg (1026.0 mb)
Winds: from the WSW (240 degrees) at 7 MPH (6 knots; 3.1 m/s)
Visibility: 6 or more miles (10+ km)
Ceiling: at least 12,000 feet AGL
Clouds: few clouds at 2500 feet AGL
Weather: no significant weather observed at this time

METAR text: LIRA 051550Z 25006KT CAVOK 23/17 Q1025
Conditions at: LIRA (CIAMPINO(IT-AFB/, IT) observed 1550 UTC 05 October 2022
Temperature: 23.0°C (73°F)
Dewpoint: 17.0°C (63°F) [RH = 69%]
Pressure (altimeter): 30.27 inches Hg (1025.0 mb)
Winds: from the WSW (250 degrees) at 7 MPH (6 knots; 3.1 m/s)
Visibility: 6 or more miles (10+ km)
Ceiling: ceiling and visibility are OK
Clouds: unknown
Weather: no significant weather observed at this time

Forecast for: LIRA (CIAMPINO(IT-AFB/, IT)
Text: TAF LIRA 051100Z 0512/0612 24010KT 9999 FEW030
Forecast period: 1200 to 1600 UTC 05 October 2022
Forecast type: FROM: standard forecast or significant change
Winds: from the WSW (240 degrees) at 12 MPH (10 knots; 5.1 m/s)
Visibility: 6 or more miles (10+ km)
Ceiling: at least 12,000 feet AGL
Clouds: few clouds at 3000 feet AGL
Weather: no significant weather forecast for this period
Text: BECMG 0516/0518 VRB05KT
Forecast period: 1600 UTC 05 October 2022 to 1200 UTC 06 October 2022
Forecast type: BECOMING: Conditions expected to become as follows by 1800 UTC 05 October 2022
Winds: variable direction winds at 6 MPH (5 knots; 2.6 m/s)
Visibility: 6 or more miles (10+ km)
Ceiling: at least 12,000 feet AGL
Clouds: few clouds at 3000 feet AGL
Weather: no significant weather forecast for this period